createdAt,value
2022-08-19T00:00:30.147Z,29.46
2022-08-19T00:02:59.359Z,29.12
2022-08-19T00:05:28.596Z,29.02
2022-08-19T00:07:57.854Z,29.13
2022-08-19T00:10:27.197Z,29.26
2022-08-19T00:12:56.407Z,29.32
2022-08-19T00:15:26.291Z,29.34
2022-08-19T00:17:56.517Z,29.22
2022-08-19T00:20:25.957Z,29.38
2022-08-19T00:22:56.785Z,29.06
2022-08-19T00:25:30.254Z,29.11
2022-08-19T00:28:01.186Z,29.38
2022-08-19T00:30:30.573Z,29.18
2022-08-19T00:32:59.978Z,29.24
2022-08-19T00:35:29.516Z,29.22
2022-08-19T00:37:58.631Z,29.20
2022-08-19T00:40:28.509Z,29.26
2022-08-19T00:42:57.943Z,29.42
2022-08-19T00:45:29.983Z,29.38
2022-08-19T00:47:59.276Z,29.45
2022-08-19T00:50:28.287Z,29.58
2022-08-19T00:52:57.666Z,29.68
2022-08-19T00:55:30.679Z,29.63
2022-08-19T00:58:06.805Z,29.78
2022-08-19T01:00:39.049Z,29.78
2022-08-19T01:03:13.693Z,29.57
2022-08-19T01:05:46.316Z,29.71
2022-08-19T01:08:17.979Z,29.62
2022-08-19T01:10:54.732Z,29.80
2022-08-19T01:13:27.993Z,29.76
2022-08-19T01:16:04.985Z,29.73
2022-08-19T01:18:37.480Z,29.51
2022-08-19T01:21:12.953Z,29.41
2022-08-19T01:23:44.884Z,29.27
2022-08-19T01:26:19.703Z,29.42
2022-08-19T01:28:52.229Z,29.47
2022-08-19T01:31:28.347Z,29.36
2022-08-19T01:33:59.870Z,29.52
2022-08-19T01:36:33.500Z,29.42
2022-08-19T01:39:05.679Z,29.33
2022-08-19T01:41:35.062Z,29.31
2022-08-19T01:44:18.871Z,29.16
2022-08-19T01:46:51.230Z,29.23
2022-08-19T01:49:23.323Z,29.36
2022-08-19T01:51:53.260Z,29.29
2022-08-19T01:54:27.786Z,29.35
2022-08-19T01:57:05.913Z,29.31
2022-08-19T01:59:37.748Z,29.13
2022-08-19T02:02:09.618Z,28.72
2022-08-19T02:04:42.255Z,28.54
2022-08-19T02:10:17.968Z,28.74
2022-08-19T02:12:47.636Z,28.81
2022-08-19T02:15:17.020Z,28.74
2022-08-19T02:17:46.149Z,28.78
2022-08-19T02:20:15.611Z,28.79
2022-08-19T02:22:46.048Z,28.58
2022-08-19T02:25:16.476Z,28.40
2022-08-19T02:27:45.723Z,28.58
2022-08-19T02:30:18.336Z,28.58
2022-08-19T02:32:47.761Z,28.44
2022-08-19T02:35:16.768Z,28.36
2022-08-19T02:38:05.141Z,28.30
2022-08-19T02:40:37.835Z,28.35
2022-08-19T02:43:09.394Z,28.23
2022-08-19T02:45:41.663Z,28.17
2022-08-19T02:48:14.925Z,28.08
2022-08-19T02:50:56.951Z,27.98
2022-08-19T02:53:30.030Z,28.11
2022-08-19T02:55:59.526Z,27.90
2022-08-19T02:58:28.642Z,27.82
2022-08-19T03:00:59.391Z,27.72
2022-08-19T03:03:28.985Z,27.51
2022-08-19T03:06:19.603Z,27.39
2022-08-19T03:08:51.482Z,27.63
2022-08-19T03:11:34.300Z,27.57
2022-08-19T03:14:19.814Z,27.36
2022-08-19T03:17:18.536Z,27.15
2022-08-19T03:19:52.847Z,27.49
2022-08-19T03:22:38.990Z,27.35
2022-08-19T03:25:08.404Z,27.23
2022-08-19T03:27:40.309Z,27.38
2022-08-19T03:30:11.686Z,27.30
2022-08-19T03:32:45.282Z,27.07
2022-08-19T03:35:14.783Z,27.19
2022-08-19T03:37:44.447Z,27.14
2022-08-19T03:40:23.781Z,27.23
2022-08-19T03:42:53.697Z,27.22
2022-08-19T03:45:28.674Z,27.14
2022-08-19T03:48:01.503Z,26.74
2022-08-19T03:50:31.271Z,26.95
2022-08-19T03:53:02.926Z,26.89
2022-08-19T03:55:38.917Z,27.03
2022-08-19T03:58:14.184Z,26.58
2022-08-19T04:00:59.157Z,26.51
2022-08-19T04:03:33.601Z,26.59
2022-08-19T04:06:26.313Z,26.65
2022-08-19T04:09:04.637Z,26.80
2022-08-19T04:11:48.887Z,26.46
2022-08-19T04:14:25.092Z,26.61
2022-08-19T04:17:03.104Z,26.34
2022-08-19T04:19:43.407Z,26.62
2022-08-19T04:22:13.464Z,26.33
2022-08-19T04:24:44.137Z,26.43
2022-08-19T04:27:14.699Z,26.35
2022-08-19T04:29:51.838Z,26.10
2022-08-19T04:32:29.244Z,25.94
2022-08-19T04:35:32.622Z,26.24
2022-08-19T04:38:29.214Z,26.35
2022-08-19T04:41:20.260Z,25.97
2022-08-19T04:43:53.022Z,25.84
2022-08-19T04:46:40.592Z,25.92
2022-08-19T04:49:18.710Z,26.30
2022-08-19T04:51:53.128Z,26.11
2022-08-19T04:54:37.402Z,26.04
2022-08-19T04:57:11.663Z,25.77
2022-08-19T04:59:41.575Z,25.71
2022-08-19T05:02:11.953Z,25.83
2022-08-19T05:04:41.335Z,26.05
2022-08-19T05:07:11.898Z,26.07
2022-08-19T05:09:57.026Z,25.93
2022-08-19T05:12:30.555Z,25.76
2022-08-19T05:15:00.972Z,25.89
2022-08-19T05:17:33.535Z,25.94
2022-08-19T05:20:25.870Z,25.83
2022-08-19T05:22:55.460Z,26.08
2022-08-19T05:25:27.453Z,25.62
2022-08-19T05:27:56.745Z,25.80
2022-08-19T05:30:37.620Z,25.69
2022-08-19T05:33:15.084Z,25.93
2022-08-19T05:35:44.151Z,26.02
2022-08-19T05:38:13.682Z,25.87
2022-08-19T05:40:43.285Z,25.61
2022-08-19T05:43:12.835Z,25.60
2022-08-19T05:45:43.845Z,25.53
2022-08-19T05:48:14.606Z,25.85
2022-08-19T05:50:44.079Z,25.72
2022-08-19T05:53:14.150Z,25.75
2022-08-19T05:55:43.171Z,25.64
2022-08-19T05:58:12.337Z,25.64
2022-08-19T06:00:42.069Z,25.44
2022-08-19T06:03:14.600Z,25.47
2022-08-19T06:05:51.532Z,25.71
2022-08-19T06:08:34.393Z,25.52
2022-08-19T06:11:18.250Z,25.04
2022-08-19T06:13:59.741Z,25.20
2022-08-19T06:16:30.306Z,25.29
2022-08-19T06:19:02.890Z,25.38
2022-08-19T06:21:32.819Z,25.36
2022-08-19T06:24:02.106Z,25.21
2022-08-19T06:26:34.656Z,25.15
2022-08-19T06:29:05.776Z,25.19
2022-08-19T06:31:37.009Z,25.09
2022-08-19T06:34:08.547Z,25.13
2022-08-19T06:36:43.833Z,24.99
2022-08-19T06:39:34.659Z,24.89
2022-08-19T06:42:09.126Z,24.99
2022-08-19T06:44:48.128Z,25.04
2022-08-19T06:47:25.271Z,25.07
2022-08-19T06:50:05.325Z,25.15
2022-08-19T06:52:38.351Z,25.14
2022-08-19T06:55:08.658Z,24.96
2022-08-19T06:57:38.064Z,24.82
2022-08-19T07:00:13.028Z,24.65
2022-08-19T07:02:48.200Z,24.89
2022-08-19T07:05:25.078Z,25.07
2022-08-19T07:07:54.280Z,25.05
2022-08-19T07:10:27.523Z,24.84
2022-08-19T07:12:56.584Z,24.61
2022-08-19T07:15:29.015Z,24.76
2022-08-19T07:17:58.339Z,24.75
2022-08-19T07:20:28.353Z,24.62
2022-08-19T07:22:58.063Z,24.66
2022-08-19T07:25:32.222Z,24.75
2022-08-19T07:28:02.444Z,24.72
2022-08-19T07:30:32.039Z,24.74
2022-08-19T07:33:03.885Z,24.75
2022-08-19T07:35:34.035Z,24.75
2022-08-19T07:38:04.967Z,24.78
2022-08-19T07:40:34.160Z,24.83
2022-08-19T07:43:03.345Z,24.72
2022-08-19T07:45:35.298Z,24.68
2022-08-19T07:48:05.925Z,24.65
2022-08-19T07:50:35.533Z,24.61
2022-08-19T07:53:04.750Z,24.24
2022-08-19T07:55:42.171Z,24.15
2022-08-19T07:58:16.084Z,24.42
2022-08-19T08:00:56.153Z,24.34
2022-08-19T08:03:44.655Z,24.48
2022-08-19T08:06:34.126Z,24.46
2022-08-19T08:09:13.217Z,24.53
2022-08-19T08:12:01.992Z,24.62
2022-08-19T08:14:44.004Z,24.46
2022-08-19T08:17:16.870Z,24.61
2022-08-19T08:20:01.498Z,24.51
2022-08-19T08:22:49.840Z,24.47
2022-08-19T08:25:24.432Z,24.36
2022-08-19T08:27:55.327Z,24.20
2022-08-19T08:30:27.420Z,24.08
2022-08-19T08:33:02.528Z,24.17
2022-08-19T08:35:32.038Z,24.15
2022-08-19T08:38:01.276Z,24.26
2022-08-19T08:40:40.285Z,24.31
2022-08-19T08:43:34.545Z,24.18
2022-08-19T08:46:12.280Z,24.20
2022-08-19T08:48:52.607Z,24.22
2022-08-19T08:51:34.546Z,24.07
2022-08-19T08:54:09.875Z,24.20
2022-08-19T08:56:45.304Z,24.08
2022-08-19T08:59:34.433Z,24.09
2022-08-19T09:02:03.752Z,24.16
2022-08-19T09:04:33.055Z,23.94
2022-08-19T09:07:39.806Z,23.80
2022-08-19T09:10:34.781Z,24.04
2022-08-19T09:13:28.105Z,24.02
2022-08-19T09:16:16.888Z,23.81
2022-08-19T09:18:48.957Z,23.86
2022-08-19T09:21:22.929Z,24.13
2022-08-19T09:23:55.676Z,24.16
2022-08-19T09:26:47.515Z,24.19
2022-08-19T09:29:17.718Z,24.03
2022-08-19T09:31:46.861Z,24.10
2022-08-19T09:34:21.566Z,23.98
2022-08-19T09:36:56.997Z,24.14
2022-08-19T09:39:26.219Z,24.05
2022-08-19T09:42:06.625Z,24.06
2022-08-19T09:44:46.261Z,23.90
2022-08-19T09:47:17.130Z,24.14
2022-08-19T09:49:50.765Z,23.97
2022-08-19T09:52:19.967Z,23.96
2022-08-19T09:54:51.883Z,23.65
2022-08-19T09:57:21.207Z,23.84
2022-08-19T09:59:50.441Z,23.84
2022-08-19T10:02:22.426Z,23.69
2022-08-19T10:05:09.846Z,23.64
2022-08-19T10:07:39.747Z,23.86
2022-08-19T10:10:11.210Z,23.73
2022-08-19T10:12:41.827Z,23.85
2022-08-19T10:15:11.413Z,23.84
2022-08-19T10:17:40.738Z,23.72
2022-08-19T10:20:17.325Z,23.84
2022-08-19T10:22:46.383Z,23.62
2022-08-19T10:25:21.070Z,23.75
2022-08-19T10:27:51.380Z,23.82
2022-08-19T10:30:20.974Z,23.78
2022-08-19T10:32:50.258Z,23.88
2022-08-19T10:35:22.108Z,23.87
2022-08-19T10:37:57.256Z,23.84
2022-08-19T10:40:28.645Z,23.91
2022-08-19T10:42:58.443Z,23.94
2022-08-19T10:45:28.461Z,23.90
2022-08-19T10:47:58.172Z,23.87
2022-08-19T10:50:45.985Z,23.79
2022-08-19T10:53:15.485Z,23.64
2022-08-19T10:56:04.991Z,23.79
2022-08-19T10:58:34.282Z,23.88
2022-08-19T11:01:03.462Z,23.56
2022-08-19T11:03:32.925Z,23.68
2022-08-19T11:06:09.693Z,23.85
2022-08-19T11:08:39.475Z,23.74
2022-08-19T11:11:10.300Z,23.85
2022-08-19T11:13:41.309Z,23.79
2022-08-19T11:16:15.189Z,23.78
2022-08-19T11:18:50.808Z,23.72
2022-08-19T11:21:22.034Z,23.66
2022-08-19T11:23:54.024Z,23.63
2022-08-19T11:26:25.467Z,23.71
2022-08-19T11:28:56.391Z,23.67
2022-08-19T11:31:29.495Z,23.70
2022-08-19T11:34:01.432Z,23.66
2022-08-19T11:36:31.423Z,23.67
2022-08-19T11:39:01.071Z,23.73
2022-08-19T11:41:30.284Z,23.67
2022-08-19T11:43:59.374Z,23.73
2022-08-19T11:46:32.265Z,23.62
2022-08-19T11:49:02.618Z,23.58
2022-08-19T11:51:32.340Z,23.63
2022-08-19T11:54:02.446Z,23.59
2022-08-19T11:56:31.716Z,23.70
2022-08-19T11:59:02.552Z,23.67
2022-08-19T12:01:33.233Z,23.74
2022-08-19T12:04:02.920Z,23.68
2022-08-19T12:06:35.794Z,23.68
2022-08-19T12:09:10.479Z,23.69
2022-08-19T12:11:40.795Z,23.74
2022-08-19T12:14:14.555Z,23.81
2022-08-19T12:16:51.400Z,23.69
2022-08-19T12:19:22.806Z,23.60
2022-08-19T12:21:52.744Z,23.64
2022-08-19T12:24:24.873Z,23.56
2022-08-19T12:26:55.301Z,23.50
2022-08-19T12:29:31.243Z,23.55
2022-08-19T12:32:04.089Z,23.29
2022-08-19T12:34:34.847Z,23.33
2022-08-19T12:37:06.345Z,23.36
2022-08-19T12:39:44.110Z,23.32
2022-08-19T12:42:15.560Z,23.38
2022-08-19T12:44:46.003Z,23.28
2022-08-19T12:47:15.720Z,23.13
2022-08-19T12:49:53.261Z,23.43
2022-08-19T12:52:28.888Z,23.47
2022-08-19T12:54:59.040Z,23.26
2022-08-19T12:57:31.819Z,23.19
2022-08-19T13:00:05.265Z,23.30
2022-08-19T13:02:38.812Z,23.12
2022-08-19T13:05:10.721Z,23.18
2022-08-19T13:07:41.972Z,23.10
2022-08-19T13:10:14.201Z,22.99
2022-08-19T13:12:44.591Z,22.74
2022-08-19T13:15:19.352Z,22.67
2022-08-19T13:17:52.229Z,22.57
2022-08-19T13:20:22.690Z,22.46
2022-08-19T13:22:52.254Z,22.48
2022-08-19T13:25:21.693Z,22.40
2022-08-19T13:27:52.766Z,22.35
2022-08-19T13:30:41.374Z,22.33
2022-08-19T13:33:15.530Z,22.28
2022-08-19T13:35:52.622Z,22.25
2022-08-19T13:38:24.097Z,22.24
2022-08-19T13:40:55.403Z,22.30
2022-08-19T13:43:28.056Z,22.22
2022-08-19T13:45:57.976Z,22.25
2022-08-19T13:48:29.521Z,22.04
2022-08-19T13:50:59.020Z,21.84
2022-08-19T13:53:28.154Z,21.74
2022-08-19T13:55:57.180Z,21.69
2022-08-19T13:58:26.313Z,21.62
2022-08-19T14:00:55.349Z,21.55
2022-08-19T14:03:25.451Z,22.02
2022-08-19T14:05:54.610Z,22.06
2022-08-19T14:08:23.552Z,22.06
2022-08-19T14:10:52.830Z,22.12
2022-08-19T14:13:24.056Z,21.94
2022-08-19T14:15:54.906Z,21.78
2022-08-19T14:18:24.032Z,21.91
2022-08-19T14:20:58.905Z,21.88
2022-08-19T14:23:28.299Z,21.96
2022-08-19T14:26:09.854Z,21.93
2022-08-19T14:28:39.060Z,21.71
2022-08-19T14:31:08.032Z,21.74
2022-08-19T14:33:37.320Z,21.70
2022-08-19T14:36:07.203Z,21.50
2022-08-19T14:38:36.728Z,21.35
2022-08-19T14:41:13.394Z,21.32
2022-08-19T14:43:44.059Z,21.18
2022-08-19T14:46:14.454Z,21.08
2022-08-19T14:48:46.263Z,20.96
2022-08-19T14:51:26.352Z,20.79
2022-08-19T14:53:55.671Z,20.77
2022-08-19T14:56:28.534Z,20.90
2022-08-19T14:59:01.018Z,20.89
2022-08-19T15:01:30.360Z,20.79
2022-08-19T15:03:59.372Z,20.72
2022-08-19T15:06:30.938Z,20.81
2022-08-19T15:09:04.153Z,20.76
2022-08-19T15:11:34.616Z,20.77
2022-08-19T15:14:03.870Z,20.72
2022-08-19T15:16:33.099Z,20.64
2022-08-19T15:19:02.529Z,20.74
2022-08-19T15:21:32.074Z,20.75
2022-08-19T15:24:02.895Z,20.63
2022-08-19T15:26:34.149Z,20.70
2022-08-19T15:29:05.386Z,20.71
2022-08-19T15:31:38.233Z,20.72
2022-08-19T15:34:08.772Z,20.68
2022-08-19T15:36:38.090Z,20.81
2022-08-19T15:39:08.292Z,20.84
2022-08-19T15:41:38.151Z,20.76
2022-08-19T15:44:14.158Z,20.84
2022-08-19T15:46:46.282Z,20.89
2022-08-19T15:49:18.099Z,20.74
2022-08-19T15:51:50.291Z,20.79
2022-08-19T15:54:22.870Z,20.97
2022-08-19T15:57:11.155Z,20.84
2022-08-19T16:00:02.554Z,20.97
2022-08-19T16:02:53.763Z,21.04
2022-08-19T16:05:44.843Z,21.13
2022-08-19T16:08:14.286Z,21.07
2022-08-19T16:10:43.355Z,21.07
2022-08-19T16:13:12.728Z,21.08
2022-08-19T16:15:44.080Z,21.18
2022-08-19T16:18:13.429Z,21.14
2022-08-19T16:20:42.587Z,21.07
2022-08-19T16:23:11.954Z,21.27
2022-08-19T16:25:41.119Z,21.38
2022-08-19T16:28:11.292Z,21.42
2022-08-19T16:30:42.257Z,21.43
2022-08-19T16:33:22.785Z,21.33
2022-08-19T16:35:58.442Z,21.31
2022-08-19T16:38:34.611Z,21.52
2022-08-19T16:41:04.013Z,21.74
2022-08-19T16:43:33.515Z,21.67
2022-08-19T16:46:03.329Z,21.54
2022-08-19T16:48:33.728Z,21.35
2022-08-19T16:51:10.144Z,21.55
2022-08-19T16:53:42.000Z,21.67
2022-08-19T16:56:11.729Z,21.88
2022-08-19T16:58:40.989Z,21.86
2022-08-19T17:01:12.246Z,21.78
2022-08-19T17:03:42.146Z,21.66
2022-08-19T17:06:20.462Z,21.48
2022-08-19T17:08:51.795Z,21.45
2022-08-19T17:11:22.981Z,21.56
2022-08-19T17:13:52.212Z,21.70
2022-08-19T17:16:25.595Z,21.65
2022-08-19T17:18:57.242Z,21.76
2022-08-19T17:21:32.896Z,21.96
2022-08-19T17:24:03.462Z,21.88
2022-08-19T17:26:32.944Z,21.86
2022-08-19T17:29:02.204Z,21.90
2022-08-19T17:31:32.748Z,21.97
2022-08-19T17:34:03.623Z,22.01
2022-08-19T17:36:34.850Z,21.88
2022-08-19T17:39:06.022Z,21.84
2022-08-19T17:41:35.896Z,21.51
2022-08-19T17:44:05.817Z,21.67
2022-08-19T17:46:35.044Z,21.43
2022-08-19T17:49:04.340Z,21.34
2022-08-19T17:51:46.878Z,21.40
2022-08-19T17:54:19.550Z,21.39
2022-08-19T17:56:52.204Z,21.43
2022-08-19T17:59:21.638Z,21.32
2022-08-19T18:01:58.321Z,21.33
2022-08-19T18:04:30.648Z,21.38
2022-08-19T18:07:05.275Z,21.34
2022-08-19T18:09:41.250Z,21.17
2022-08-19T18:12:18.874Z,21.26
2022-08-19T18:14:48.926Z,21.24
2022-08-19T18:17:20.342Z,21.28
2022-08-19T18:19:50.113Z,21.02
2022-08-19T18:22:42.933Z,21.46
2022-08-19T18:25:27.182Z,21.67
2022-08-19T18:28:00.081Z,21.82
2022-08-19T18:30:35.202Z,21.82
2022-08-19T18:33:15.362Z,21.86
2022-08-19T18:35:47.667Z,21.97
2022-08-19T18:38:37.680Z,21.96
2022-08-19T18:41:27.197Z,21.77
2022-08-19T18:44:16.398Z,21.70
2022-08-19T18:47:03.874Z,21.75
2022-08-19T18:49:37.928Z,21.77
2022-08-19T18:52:07.385Z,21.73
2022-08-19T18:54:37.737Z,21.88
2022-08-19T18:57:09.910Z,21.95
2022-08-19T18:59:44.109Z,21.80
2022-08-19T19:02:16.043Z,21.65
2022-08-19T19:04:47.216Z,21.66
2022-08-19T19:07:21.664Z,21.73
2022-08-19T19:09:52.304Z,21.75
2022-08-19T19:12:22.535Z,21.62
2022-08-19T19:14:51.808Z,21.57
2022-08-19T19:17:27.029Z,21.39
2022-08-19T19:19:56.372Z,21.49
2022-08-19T19:22:26.657Z,21.50
2022-08-19T19:24:56.391Z,21.58
2022-08-19T19:27:25.811Z,21.75
2022-08-19T19:29:55.492Z,21.79
2022-08-19T19:32:29.499Z,22.07
2022-08-19T19:35:02.119Z,22.19
2022-08-19T19:37:31.309Z,22.31
2022-08-19T19:40:00.413Z,22.36
2022-08-19T19:42:29.755Z,22.13
2022-08-19T19:44:59.547Z,22.19
2022-08-19T19:47:29.363Z,22.27
2022-08-19T19:50:13.903Z,22.21
2022-08-19T19:52:49.535Z,22.33
2022-08-19T19:55:19.488Z,22.69
2022-08-19T19:57:50.206Z,22.60
2022-08-19T20:00:20.661Z,22.54
2022-08-19T20:02:51.133Z,22.45
2022-08-19T20:05:24.515Z,22.74
2022-08-19T20:08:13.469Z,23.12
2022-08-19T20:10:44.932Z,22.91
2022-08-19T20:13:16.343Z,22.97
2022-08-19T20:15:45.607Z,23.45
2022-08-19T20:18:15.487Z,23.15
2022-08-19T20:20:47.188Z,23.30
2022-08-19T20:23:16.416Z,23.45
2022-08-19T20:25:45.503Z,23.37
2022-08-19T20:28:14.673Z,23.63
2022-08-19T20:30:46.727Z,24.22
2022-08-19T20:33:17.571Z,24.20
2022-08-19T20:35:47.265Z,24.09
2022-08-19T20:38:16.561Z,24.32
2022-08-19T20:40:45.701Z,23.93
2022-08-19T20:43:15.236Z,24.22
2022-08-19T20:45:44.366Z,24.27
2022-08-19T20:48:14.424Z,24.34
2022-08-19T20:50:43.589Z,24.12
2022-08-19T20:53:18.606Z,24.60
2022-08-19T20:55:52.307Z,24.72
2022-08-19T20:58:24.524Z,24.60
2022-08-19T21:00:58.750Z,24.74
2022-08-19T21:03:30.981Z,24.53
2022-08-19T21:06:03.625Z,24.79
2022-08-19T21:08:35.894Z,24.84
2022-08-19T21:11:07.467Z,25.00
2022-08-19T21:13:36.737Z,24.87
2022-08-19T21:16:09.177Z,24.85
2022-08-19T21:18:39.731Z,24.75
2022-08-19T21:21:08.991Z,24.90
2022-08-19T21:23:38.085Z,25.10
2022-08-19T21:26:07.233Z,25.29
2022-08-19T21:28:36.800Z,25.43
2022-08-19T21:31:07.959Z,25.33
2022-08-19T21:33:37.705Z,25.27
2022-08-19T21:36:07.343Z,25.42
2022-08-19T21:38:36.753Z,25.31
2022-08-19T21:41:07.207Z,24.91
2022-08-19T21:43:38.644Z,25.02
2022-08-19T21:46:09.794Z,25.13
2022-08-19T21:48:42.811Z,25.42
2022-08-19T21:51:11.865Z,25.36
2022-08-19T21:53:40.875Z,25.14
2022-08-19T21:56:13.790Z,24.91
2022-08-19T21:58:43.043Z,24.96
2022-08-19T22:01:12.883Z,25.20
2022-08-19T22:03:42.126Z,25.17
2022-08-19T22:06:11.897Z,24.99
2022-08-19T22:08:42.461Z,25.05
2022-08-19T22:11:13.521Z,25.35
2022-08-19T22:13:42.937Z,25.36
2022-08-19T22:16:15.268Z,25.74
2022-08-19T22:18:45.318Z,25.73
2022-08-19T22:21:15.918Z,25.49
2022-08-19T22:23:59.572Z,25.50
2022-08-19T22:26:33.434Z,25.56
2022-08-19T22:29:02.601Z,25.40
2022-08-19T22:31:33.885Z,25.43
2022-08-19T22:34:04.574Z,25.44
2022-08-19T22:36:34.080Z,25.10
2022-08-19T22:39:04.906Z,25.22
2022-08-19T22:41:34.856Z,25.33
2022-08-19T22:44:04.765Z,25.40
2022-08-19T22:46:35.102Z,25.35
2022-08-19T22:49:04.435Z,24.99
2022-08-19T22:51:51.705Z,24.93
2022-08-19T22:54:20.923Z,24.86
2022-08-19T22:56:52.649Z,25.09
2022-08-19T22:59:21.900Z,25.02
2022-08-19T23:01:51.120Z,25.02
2022-08-19T23:04:20.167Z,24.92
2022-08-19T23:06:49.268Z,25.13
2022-08-19T23:09:18.222Z,25.18
2022-08-19T23:11:52.723Z,25.15
2022-08-19T23:14:21.846Z,25.06
2022-08-19T23:16:51.531Z,25.09
2022-08-19T23:19:21.924Z,25.33
2022-08-19T23:21:51.101Z,25.35
2022-08-19T23:24:20.442Z,25.54
2022-08-19T23:27:07.812Z,25.42
2022-08-19T23:29:55.237Z,25.44
2022-08-19T23:32:26.373Z,25.49
2022-08-19T23:34:57.923Z,25.27
2022-08-19T23:37:29.054Z,25.51
2022-08-19T23:39:58.099Z,25.52
2022-08-19T23:42:27.252Z,25.48
2022-08-19T23:45:05.810Z,25.28
2022-08-19T23:47:36.090Z,25.67
2022-08-19T23:50:10.842Z,25.75
2022-08-19T23:53:05.667Z,25.63
2022-08-19T23:55:38.844Z,25.60
2022-08-19T23:58:09.078Z,25.59
